sensor_id;sensor_type;location;lat;lon;timestamp;temperature;humidity
5429;DHT22;2737;52.386;9.980;2024-02-23T00:01:33;9.00;99.90
5429;DHT22;2737;52.386;9.980;2024-02-23T00:04:00;9.00;99.90
5429;DHT22;2737;52.386;9.980;2024-02-23T00:06:29;9.00;99.90
5429;DHT22;2737;52.386;9.980;2024-02-23T00:08:56;8.90;99.90
5429;DHT22;2737;52.386;9.980;2024-02-23T00:11:24;9.00;99.90
5429;DHT22;2737;52.386;9.980;2024-02-23T00:13:51;8.90;99.90
5429;DHT22;2737;52.386;9.980;2024-02-23T00:16:18;8.90;99.90
5429;DHT22;2737;52.386;9.980;2024-02-23T00:18:45;8.80;99.90
5429;DHT22;2737;52.386;9.980;2024-02-23T00:21:12;8.80;99.90
5429;DHT22;2737;52.386;9.980;2024-02-23T00:23:40;8.80;99.90
5429;DHT22;2737;52.386;9.980;2024-02-23T00:26:07;8.80;99.90
5429;DHT22;2737;52.386;9.980;2024-02-23T00:28:35;8.90;99.90
5429;DHT22;2737;52.386;9.980;2024-02-23T00:31:02;8.90;99.90
5429;DHT22;2737;52.386;9.980;2024-02-23T00:33:30;9.00;99.90
5429;DHT22;2737;52.386;9.980;2024-02-23T00:35:57;9.00;99.90
5429;DHT22;2737;52.386;9.980;2024-02-23T00:38:24;8.90;99.90
5429;DHT22;2737;52.386;9.980;2024-02-23T00:40:52;8.90;99.90
5429;DHT22;2737;52.386;9.980;2024-02-23T00:43:20;8.90;99.90
5429;DHT22;2737;52.386;9.980;2024-02-23T00:45:47;8.80;99.90
5429;DHT22;2737;52.386;9.980;2024-02-23T00:48:14;8.80;99.90
5429;DHT22;2737;52.386;9.980;2024-02-23T00:50:41;8.80;99.90
5429;DHT22;2737;52.386;9.980;2024-02-23T00:53:08;8.80;99.90
5429;DHT22;2737;52.386;9.980;2024-02-23T00:55:35;8.80;99.90
5429;DHT22;2737;52.386;9.980;2024-02-23T00:58:03;8.90;99.90
5429;DHT22;2737;52.386;9.980;2024-02-23T01:00:30;8.80;99.90
5429;DHT22;2737;52.386;9.980;2024-02-23T01:02:57;8.80;99.90
5429;DHT22;2737;52.386;9.980;2024-02-23T01:05:25;8.80;99.90
5429;DHT22;2737;52.386;9.980;2024-02-23T01:07:52;8.80;99.90
5429;DHT22;2737;52.386;9.980;2024-02-23T01:10:19;8.80;99.90
5429;DHT22;2737;52.386;9.980;2024-02-23T01:12:46;8.80;99.90
5429;DHT22;2737;52.386;9.980;2024-02-23T01:15:15;8.70;99.90
5429;DHT22;2737;52.386;9.980;2024-02-23T01:17:42;8.80;99.90
5429;DHT22;2737;52.386;9.980;2024-02-23T01:20:09;8.70;99.90
5429;DHT22;2737;52.386;9.980;2024-02-23T01:22:36;8.80;99.90
5429;DHT22;2737;52.386;9.980;2024-02-23T01:25:05;8.70;99.90
5429;DHT22;2737;52.386;9.980;2024-02-23T01:27:32;8.70;99.90
5429;DHT22;2737;52.386;9.980;2024-02-23T01:29:59;8.70;99.90
5429;DHT22;2737;52.386;9.980;2024-02-23T01:32:27;8.60;99.90
5429;DHT22;2737;52.386;9.980;2024-02-23T01:34:54;8.50;99.90
5429;DHT22;2737;52.386;9.980;2024-02-23T01:37:21;8.50;99.90
5429;DHT22;2737;52.386;9.980;2024-02-23T01:39:48;8.50;99.90
5429;DHT22;2737;52.386;9.980;2024-02-23T01:42:15;8.40;99.90
5429;DHT22;2737;52.386;9.980;2024-02-23T01:44:43;8.30;99.90
5429;DHT22;2737;52.386;9.980;2024-02-23T01:47:10;8.20;99.90
5429;DHT22;2737;52.386;9.980;2024-02-23T01:49:39;8.10;99.90
5429;DHT22;2737;52.386;9.980;2024-02-23T01:52:06;8.00;99.90
5429;DHT22;2737;52.386;9.980;2024-02-23T01:54:33;7.90;99.90
5429;DHT22;2737;52.386;9.980;2024-02-23T01:57:00;7.70;99.90
5429;DHT22;2737;52.386;9.980;2024-02-23T01:59:28;7.60;99.90
5429;DHT22;2737;52.386;9.980;2024-02-23T02:01:55;7.50;99.90
5429;DHT22;2737;52.386;9.980;2024-02-23T02:04:22;7.40;99.90
5429;DHT22;2737;52.386;9.980;2024-02-23T02:06:51;7.20;99.90
5429;DHT22;2737;52.386;9.980;2024-02-23T02:09:18;7.20;99.90
5429;DHT22;2737;52.386;9.980;2024-02-23T02:14:41;6.90;99.90
5429;DHT22;2737;52.386;9.980;2024-02-23T02:17:08;6.80;99.90
5429;DHT22;2737;52.386;9.980;2024-02-23T02:19:35;6.80;99.90
5429;DHT22;2737;52.386;9.980;2024-02-23T02:22:03;6.60;99.90
5429;DHT22;2737;52.386;9.980;2024-02-23T02:24:31;6.50;99.90
5429;DHT22;2737;52.386;9.980;2024-02-23T02:26:58;6.40;99.90
5429;DHT22;2737;52.386;9.980;2024-02-23T02:29:25;6.30;99.90
5429;DHT22;2737;52.386;9.980;2024-02-23T02:31:52;6.20;99.90
5429;DHT22;2737;52.386;9.980;2024-02-23T02:34:19;6.10;99.90
5429;DHT22;2737;52.386;9.980;2024-02-23T02:36:46;6.10;99.90
5429;DHT22;2737;52.386;9.980;2024-02-23T02:39:15;6.10;99.90
5429;DHT22;2737;52.386;9.980;2024-02-23T02:41:42;6.00;99.90
5429;DHT22;2737;52.386;9.980;2024-02-23T02:44:09;6.00;99.90
5429;DHT22;2737;52.386;9.980;2024-02-23T02:46:36;6.00;99.90
5429;DHT22;2737;52.386;9.980;2024-02-23T02:49:03;6.10;99.90
5429;DHT22;2737;52.386;9.980;2024-02-23T02:51:30;6.10;99.90
5429;DHT22;2737;52.386;9.980;2024-02-23T02:53:57;6.10;99.90
5429;DHT22;2737;52.386;9.980;2024-02-23T02:56:26;6.10;99.90
5429;DHT22;2737;52.386;9.980;2024-02-23T02:58:53;6.10;99.90
5429;DHT22;2737;52.386;9.980;2024-02-23T03:01:20;6.10;99.90
5429;DHT22;2737;52.386;9.980;2024-02-23T03:03:47;6.10;99.90
5429;DHT22;2737;52.386;9.980;2024-02-23T03:06:14;6.10;99.90
5429;DHT22;2737;52.386;9.980;2024-02-23T03:08:42;6.10;99.90
5429;DHT22;2737;52.386;9.980;2024-02-23T03:11:09;6.00;99.90
5429;DHT22;2737;52.386;9.980;2024-02-23T03:13:37;6.00;99.90
5429;DHT22;2737;52.386;9.980;2024-02-23T03:16:04;6.00;99.90
5429;DHT22;2737;52.386;9.980;2024-02-23T03:18:31;6.00;99.90
5429;DHT22;2737;52.386;9.980;2024-02-23T03:20:58;6.00;99.90
5429;DHT22;2737;52.386;9.980;2024-02-23T03:23:25;5.90;99.90
5429;DHT22;2737;52.386;9.980;2024-02-23T03:25:52;5.90;99.90
5429;DHT22;2737;52.386;9.980;2024-02-23T03:28:19;5.80;99.90
5429;DHT22;2737;52.386;9.980;2024-02-23T03:30:48;5.80;99.90
5429;DHT22;2737;52.386;9.980;2024-02-23T03:33:15;5.80;99.90
5429;DHT22;2737;52.386;9.980;2024-02-23T03:35:42;5.80;99.90
5429;DHT22;2737;52.386;9.980;2024-02-23T03:38:09;5.70;99.90
5429;DHT22;2737;52.386;9.980;2024-02-23T03:40:36;5.70;99.90
5429;DHT22;2737;52.386;9.980;2024-02-23T03:43:04;5.70;99.90
5429;DHT22;2737;52.386;9.980;2024-02-23T03:45:31;5.80;99.90
5429;DHT22;2737;52.386;9.980;2024-02-23T03:48:00;5.80;99.90
5429;DHT22;2737;52.386;9.980;2024-02-23T03:50:26;5.80;99.90
5429;DHT22;2737;52.386;9.980;2024-02-23T03:52:53;5.80;99.90
5429;DHT22;2737;52.386;9.980;2024-02-23T03:55:21;5.70;99.90
5429;DHT22;2737;52.386;9.980;2024-02-23T03:57:48;5.70;99.90
5429;DHT22;2737;52.386;9.980;2024-02-23T04:00:16;5.70;99.90
5429;DHT22;2737;52.386;9.980;2024-02-23T04:02:43;5.70;99.90
5429;DHT22;2737;52.386;9.980;2024-02-23T04:05:11;5.60;99.90
5429;DHT22;2737;52.386;9.980;2024-02-23T04:07:38;5.70;99.90
5429;DHT22;2737;52.386;9.980;2024-02-23T04:10:06;5.70;99.90
5429;DHT22;2737;52.386;9.980;2024-02-23T04:12:33;5.70;99.90
5429;DHT22;2737;52.386;9.980;2024-02-23T04:15:00;5.80;99.90
5429;DHT22;2737;52.386;9.980;2024-02-23T04:17:27;5.70;99.90
5429;DHT22;2737;52.386;9.980;2024-02-23T04:19:54;5.70;99.90
5429;DHT22;2737;52.386;9.980;2024-02-23T04:22:23;5.70;99.90
5429;DHT22;2737;52.386;9.980;2024-02-23T04:24:50;5.70;99.90
5429;DHT22;2737;52.386;9.980;2024-02-23T04:27:17;5.70;99.90
5429;DHT22;2737;52.386;9.980;2024-02-23T04:29:44;5.80;99.90
5429;DHT22;2737;52.386;9.980;2024-02-23T04:32:11;5.70;99.90
5429;DHT22;2737;52.386;9.980;2024-02-23T04:34:38;5.80;99.90
5429;DHT22;2737;52.386;9.980;2024-02-23T04:37:07;5.90;99.90
5429;DHT22;2737;52.386;9.980;2024-02-23T04:39:35;5.90;99.90
5429;DHT22;2737;52.386;9.980;2024-02-23T04:42:04;5.90;99.90
5429;DHT22;2737;52.386;9.980;2024-02-23T04:44:31;5.80;99.90
5429;DHT22;2737;52.386;9.980;2024-02-23T04:46:58;5.80;99.90
5429;DHT22;2737;52.386;9.980;2024-02-23T04:49:25;5.80;99.90
5429;DHT22;2737;52.386;9.980;2024-02-23T04:51:52;5.70;99.90
5429;DHT22;2737;52.386;9.980;2024-02-23T04:54:19;5.80;99.90
5429;DHT22;2737;52.386;9.980;2024-02-23T04:56:48;5.80;99.90
5429;DHT22;2737;52.386;9.980;2024-02-23T04:59:16;5.90;99.90
5429;DHT22;2737;52.386;9.980;2024-02-23T05:01:43;5.90;99.90
5429;DHT22;2737;52.386;9.980;2024-02-23T05:04:10;5.80;99.90
5429;DHT22;2737;52.386;9.980;2024-02-23T05:06:37;5.80;99.90
5429;DHT22;2737;52.386;9.980;2024-02-23T05:09:05;5.80;99.90
5429;DHT22;2737;52.386;9.980;2024-02-23T05:11:34;5.80;99.90
5429;DHT22;2737;52.386;9.980;2024-02-23T05:14:03;5.80;99.90
5429;DHT22;2737;52.386;9.980;2024-02-23T05:16:30;5.70;99.90
5429;DHT22;2737;52.386;9.980;2024-02-23T05:18:57;5.70;99.90
5429;DHT22;2737;52.386;9.980;2024-02-23T05:21:24;5.70;99.90
5429;DHT22;2737;52.386;9.980;2024-02-23T05:23:51;5.70;99.90
5429;DHT22;2737;52.386;9.980;2024-02-23T05:26:18;5.70;99.90
5429;DHT22;2737;52.386;9.980;2024-02-23T05:28:45;5.70;99.90
5429;DHT22;2737;52.386;9.980;2024-02-23T05:31:14;5.80;99.90
5429;DHT22;2737;52.386;9.980;2024-02-23T05:33:41;5.80;99.90
5429;DHT22;2737;52.386;9.980;2024-02-23T05:36:08;5.80;99.90
5429;DHT22;2737;52.386;9.980;2024-02-23T05:38:35;5.80;99.90
5429;DHT22;2737;52.386;9.980;2024-02-23T05:41:02;5.80;99.90
5429;DHT22;2737;52.386;9.980;2024-02-23T05:43:30;5.80;99.90
5429;DHT22;2737;52.386;9.980;2024-02-23T05:45:57;5.70;99.90
5429;DHT22;2737;52.386;9.980;2024-02-23T05:48:26;5.80;99.90
5429;DHT22;2737;52.386;9.980;2024-02-23T05:50:53;5.70;99.90
5429;DHT22;2737;52.386;9.980;2024-02-23T05:53:20;5.70;99.90
5429;DHT22;2737;52.386;9.980;2024-02-23T05:55:47;5.70;99.90
5429;DHT22;2737;52.386;9.980;2024-02-23T05:58:14;5.70;99.90
5429;DHT22;2737;52.386;9.980;2024-02-23T06:00:42;5.70;99.90
5429;DHT22;2737;52.386;9.980;2024-02-23T06:03:09;5.70;99.90
5429;DHT22;2737;52.386;9.980;2024-02-23T06:05:37;5.70;99.90
5429;DHT22;2737;52.386;9.980;2024-02-23T06:08:05;5.70;99.90
5429;DHT22;2737;52.386;9.980;2024-02-23T06:10:32;5.80;99.90
5429;DHT22;2737;52.386;9.980;2024-02-23T06:12:59;5.80;99.90
5429;DHT22;2737;52.386;9.980;2024-02-23T06:15:26;5.80;99.90
5429;DHT22;2737;52.386;9.980;2024-02-23T06:17:53;5.80;99.90
5429;DHT22;2737;52.386;9.980;2024-02-23T06:20:20;5.90;99.90
5429;DHT22;2737;52.386;9.980;2024-02-23T06:22:49;5.80;99.90
5429;DHT22;2737;52.386;9.980;2024-02-23T06:25:16;5.80;99.90
5429;DHT22;2737;52.386;9.980;2024-02-23T06:27:43;5.90;99.90
5429;DHT22;2737;52.386;9.980;2024-02-23T06:30:10;5.90;99.90
5429;DHT22;2737;52.386;9.980;2024-02-23T06:32:37;5.90;99.90
5429;DHT22;2737;52.386;9.980;2024-02-23T06:35:05;5.90;99.90
5429;DHT22;2737;52.386;9.980;2024-02-23T06:37:33;6.00;99.90
5429;DHT22;2737;52.386;9.980;2024-02-23T06:40:01;6.00;99.90
5429;DHT22;2737;52.386;9.980;2024-02-23T06:42:30;7.00;99.90
5429;DHT22;2737;52.386;9.980;2024-02-23T06:44:57;6.00;99.90
5429;DHT22;2737;52.386;9.980;2024-02-23T06:47:24;6.00;99.90
5429;DHT22;2737;52.386;9.980;2024-02-23T06:49:51;6.00;99.90
5429;DHT22;2737;52.386;9.980;2024-02-23T06:52:18;6.00;99.90
5429;DHT22;2737;52.386;9.980;2024-02-23T06:54:45;6.00;99.90
5429;DHT22;2737;52.386;9.980;2024-02-23T06:57:13;6.00;99.90
5429;DHT22;2737;52.386;9.980;2024-02-23T06:59:40;6.00;99.90
5429;DHT22;2737;52.386;9.980;2024-02-23T07:02:07;6.00;99.90
5429;DHT22;2737;52.386;9.980;2024-02-23T07:04:35;6.10;99.90
5429;DHT22;2737;52.386;9.980;2024-02-23T07:07:02;6.10;99.90
5429;DHT22;2737;52.386;9.980;2024-02-23T07:09:33;6.10;99.90
5429;DHT22;2737;52.386;9.980;2024-02-23T07:12:00;6.10;99.90
5429;DHT22;2737;52.386;9.980;2024-02-23T07:14:28;6.10;99.90
5429;DHT22;2737;52.386;9.980;2024-02-23T07:16:55;6.20;99.90
5429;DHT22;2737;52.386;9.980;2024-02-23T07:19:22;6.20;99.90
5429;DHT22;2737;52.386;9.980;2024-02-23T07:21:49;6.20;99.90
5429;DHT22;2737;52.386;9.980;2024-02-23T07:24:16;6.20;99.90
5429;DHT22;2737;52.386;9.980;2024-02-23T07:26:43;6.20;99.90
5429;DHT22;2737;52.386;9.980;2024-02-23T07:29:10;6.20;99.90
5429;DHT22;2737;52.386;9.980;2024-02-23T07:31:39;6.30;99.90
5429;DHT22;2737;52.386;9.980;2024-02-23T07:34:06;6.30;99.90
5429;DHT22;2737;52.386;9.980;2024-02-23T07:36:34;6.40;99.90
5429;DHT22;2737;52.386;9.980;2024-02-23T07:39:01;6.40;99.90
5429;DHT22;2737;52.386;9.980;2024-02-23T07:41:29;6.40;99.90
5429;DHT22;2737;52.386;9.980;2024-02-23T07:43:56;6.40;99.90
5429;DHT22;2737;52.386;9.980;2024-02-23T07:46:23;6.40;99.90
5429;DHT22;2737;52.386;9.980;2024-02-23T07:48:52;6.40;99.90
5429;DHT22;2737;52.386;9.980;2024-02-23T07:51:19;6.40;99.90
5429;DHT22;2737;52.386;9.980;2024-02-23T07:53:46;6.40;99.90
5429;DHT22;2737;52.386;9.980;2024-02-23T07:56:13;6.50;99.90
5429;DHT22;2737;52.386;9.980;2024-02-23T07:58:40;6.50;99.90
5429;DHT22;2737;52.386;9.980;2024-02-23T08:01:07;6.50;99.90
5429;DHT22;2737;52.386;9.980;2024-02-23T08:03:34;6.50;99.90
5429;DHT22;2737;52.386;9.980;2024-02-23T08:06:03;6.50;99.90
5429;DHT22;2737;52.386;9.980;2024-02-23T08:08:30;6.50;99.90
5429;DHT22;2737;52.386;9.980;2024-02-23T08:11:00;6.50;99.90
5429;DHT22;2737;52.386;9.980;2024-02-23T08:13:27;6.50;99.90
5429;DHT22;2737;52.386;9.980;2024-02-23T08:15:54;6.50;99.90
5429;DHT22;2737;52.386;9.980;2024-02-23T08:18:21;6.50;99.90
5429;DHT22;2737;52.386;9.980;2024-02-23T08:20:49;6.60;99.90
5429;DHT22;2737;52.386;9.980;2024-02-23T08:23:17;6.60;99.90
5429;DHT22;2737;52.386;9.980;2024-02-23T08:25:46;6.70;99.90
5429;DHT22;2737;52.386;9.980;2024-02-23T08:28:13;6.70;99.90
5429;DHT22;2737;52.386;9.980;2024-02-23T08:30:40;6.90;99.90
5429;DHT22;2737;52.386;9.980;2024-02-23T08:33:07;7.00;99.90
5429;DHT22;2737;52.386;9.980;2024-02-23T08:35:35;7.10;99.90
5429;DHT22;2737;52.386;9.980;2024-02-23T08:38:02;7.10;99.90
5429;DHT22;2737;52.386;9.980;2024-02-23T08:40:31;7.00;99.90
5429;DHT22;2737;52.386;9.980;2024-02-23T08:42:58;6.90;99.90
5429;DHT22;2737;52.386;9.980;2024-02-23T08:45:25;7.00;99.90
5429;DHT22;2737;52.386;9.980;2024-02-23T08:47:52;7.10;99.90
5429;DHT22;2737;52.386;9.980;2024-02-23T08:50:19;7.00;99.90
5429;DHT22;2737;52.386;9.980;2024-02-23T08:52:46;7.10;99.90
5429;DHT22;2737;52.386;9.980;2024-02-23T08:55:13;7.20;99.90
5429;DHT22;2737;52.386;9.980;2024-02-23T08:57:42;6.90;99.90
5429;DHT22;2737;52.386;9.980;2024-02-23T09:00:10;7.40;99.90
5429;DHT22;2737;52.386;9.980;2024-02-23T09:02:37;7.40;99.90
5429;DHT22;2737;52.386;9.980;2024-02-23T09:05:05;7.40;99.90
5429;DHT22;2737;52.386;9.980;2024-02-23T09:07:32;7.40;99.90
5429;DHT22;2737;52.386;9.980;2024-02-23T09:09:59;7.50;99.90
5429;DHT22;2737;52.386;9.980;2024-02-23T09:12:26;7.60;99.90
5429;DHT22;2737;52.386;9.980;2024-02-23T09:14:55;7.70;99.90
5429;DHT22;2737;52.386;9.980;2024-02-23T09:17:22;7.80;99.90
5429;DHT22;2737;52.386;9.980;2024-02-23T09:19:49;7.70;99.90
5429;DHT22;2737;52.386;9.980;2024-02-23T09:22:16;7.70;99.90
5429;DHT22;2737;52.386;9.980;2024-02-23T09:24:43;7.70;99.90
5429;DHT22;2737;52.386;9.980;2024-02-23T09:27:10;7.80;99.90
5429;DHT22;2737;52.386;9.980;2024-02-23T09:29:37;7.90;99.90
5429;DHT22;2737;52.386;9.980;2024-02-23T09:32:06;7.90;99.90
5429;DHT22;2737;52.386;9.980;2024-02-23T09:34:33;8.00;99.90
5429;DHT22;2737;52.386;9.980;2024-02-23T09:37:00;8.10;99.90
5429;DHT22;2737;52.386;9.980;2024-02-23T09:39:27;8.20;99.90
5429;DHT22;2737;52.386;9.980;2024-02-23T09:41:56;8.10;99.90
5429;DHT22;2737;52.386;9.980;2024-02-23T09:44:23;8.00;99.90
5429;DHT22;2737;52.386;9.980;2024-02-23T09:46:50;7.90;99.90
5429;DHT22;2737;52.386;9.980;2024-02-23T09:49:19;8.00;99.90
5429;DHT22;2737;52.386;9.980;2024-02-23T09:51:46;8.00;99.90
5429;DHT22;2737;52.386;9.980;2024-02-23T09:54:13;8.10;99.90
5429;DHT22;2737;52.386;9.980;2024-02-23T09:56:40;8.10;99.90
5429;DHT22;2737;52.386;9.980;2024-02-23T09:59:08;8.20;99.90
5429;DHT22;2737;52.386;9.980;2024-02-23T10:01:35;8.20;99.90
5429;DHT22;2737;52.386;9.980;2024-02-23T10:04:03;8.10;99.90
5429;DHT22;2737;52.386;9.980;2024-02-23T10:06:33;8.00;99.90
5429;DHT22;2737;52.386;9.980;2024-02-23T10:09:00;8.00;99.90
5429;DHT22;2737;52.386;9.980;2024-02-23T10:11:29;8.10;99.90
5429;DHT22;2737;52.386;9.980;2024-02-23T10:13:56;8.10;99.90
5429;DHT22;2737;52.386;9.980;2024-02-23T10:16:23;8.10;99.90
5429;DHT22;2737;52.386;9.980;2024-02-23T10:18:51;8.10;99.90
5429;DHT22;2737;52.386;9.980;2024-02-23T10:21:18;8.20;99.90
5429;DHT22;2737;52.386;9.980;2024-02-23T10:23:47;8.30;99.90
5429;DHT22;2737;52.386;9.980;2024-02-23T10:26:15;8.40;99.90
5429;DHT22;2737;52.386;9.980;2024-02-23T10:28:45;8.40;99.90
5429;DHT22;2737;52.386;9.980;2024-02-23T10:31:12;8.50;99.90
5429;DHT22;2737;52.386;9.980;2024-02-23T10:33:40;8.50;99.90
5429;DHT22;2737;52.386;9.980;2024-02-23T10:36:07;8.40;99.90
5429;DHT22;2737;52.386;9.980;2024-02-23T10:38:35;8.30;99.90
5429;DHT22;2737;52.386;9.980;2024-02-23T10:41:06;8.30;99.90
5429;DHT22;2737;52.386;9.980;2024-02-23T10:43:41;8.40;99.90
5429;DHT22;2737;52.386;9.980;2024-02-23T10:46:11;8.40;99.90
5429;DHT22;2737;52.386;9.980;2024-02-23T10:48:40;8.40;99.90
5429;DHT22;2737;52.386;9.980;2024-02-23T10:51:07;8.50;99.90
5429;DHT22;2737;52.386;9.980;2024-02-23T10:53:36;8.50;99.90
5429;DHT22;2737;52.386;9.980;2024-02-23T10:56:06;8.50;99.90
5429;DHT22;2737;52.386;9.980;2024-02-23T10:58:34;8.70;99.90
5429;DHT22;2737;52.386;9.980;2024-02-23T11:01:03;8.80;99.90
5429;DHT22;2737;52.386;9.980;2024-02-23T11:03:32;8.90;99.90
5429;DHT22;2737;52.386;9.980;2024-02-23T11:06:00;9.10;99.90
5429;DHT22;2737;52.386;9.980;2024-02-23T11:08:28;9.20;99.90
5429;DHT22;2737;52.386;9.980;2024-02-23T11:10:55;9.30;99.90
5429;DHT22;2737;52.386;9.980;2024-02-23T11:13:34;9.30;99.90
5429;DHT22;2737;52.386;9.980;2024-02-23T11:16:02;9.30;99.90
5429;DHT22;2737;52.386;9.980;2024-02-23T11:18:30;9.40;99.90
5429;DHT22;2737;52.386;9.980;2024-02-23T11:20:59;9.40;99.90
5429;DHT22;2737;52.386;9.980;2024-02-23T11:23:27;9.50;99.90
5429;DHT22;2737;52.386;9.980;2024-02-23T11:26:05;9.50;99.90
5429;DHT22;2737;52.386;9.980;2024-02-23T11:28:42;9.40;99.90
5429;DHT22;2737;52.386;9.980;2024-02-23T11:31:12;9.40;99.90
5429;DHT22;2737;52.386;9.980;2024-02-23T11:33:39;9.50;99.90
5429;DHT22;2737;52.386;9.980;2024-02-23T11:36:07;9.60;99.90
5429;DHT22;2737;52.386;9.980;2024-02-23T11:38:34;9.50;99.90
5429;DHT22;2737;52.386;9.980;2024-02-23T11:41:02;9.50;99.90
5429;DHT22;2737;52.386;9.980;2024-02-23T11:43:30;9.50;99.90
5429;DHT22;2737;52.386;9.980;2024-02-23T11:45:58;9.40;99.90
5429;DHT22;2737;52.386;9.980;2024-02-23T11:48:25;9.40;99.90
5429;DHT22;2737;52.386;9.980;2024-02-23T11:50:52;9.50;99.90
5429;DHT22;2737;52.386;9.980;2024-02-23T11:53:20;9.60;99.90
5429;DHT22;2737;52.386;9.980;2024-02-23T11:55:48;9.70;99.90
5429;DHT22;2737;52.386;9.980;2024-02-23T11:58:15;9.60;99.90
5429;DHT22;2737;52.386;9.980;2024-02-23T12:00:43;9.50;99.90
5429;DHT22;2737;52.386;9.980;2024-02-23T12:03:13;9.50;99.90
5429;DHT22;2737;52.386;9.980;2024-02-23T12:05:40;9.40;99.90
5429;DHT22;2737;52.386;9.980;2024-02-23T12:08:07;9.40;99.90
5429;DHT22;2737;52.386;9.980;2024-02-23T12:10:34;9.40;99.90
5429;DHT22;2737;52.386;9.980;2024-02-23T12:13:02;9.50;99.90
5429;DHT22;2737;52.386;9.980;2024-02-23T12:15:30;9.50;99.90
5429;DHT22;2737;52.386;9.980;2024-02-23T12:17:58;9.40;99.90
5429;DHT22;2737;52.386;9.980;2024-02-23T12:20:27;9.50;99.90
5429;DHT22;2737;52.386;9.980;2024-02-23T12:22:55;9.50;99.90
5429;DHT22;2737;52.386;9.980;2024-02-23T12:25:23;9.50;99.90
5429;DHT22;2737;52.386;9.980;2024-02-23T12:27:54;9.40;99.90
5429;DHT22;2737;52.386;9.980;2024-02-23T12:30:22;9.40;99.90
5429;DHT22;2737;52.386;9.980;2024-02-23T12:32:49;9.40;99.90
5429;DHT22;2737;52.386;9.980;2024-02-23T12:35:16;9.40;99.90
5429;DHT22;2737;52.386;9.980;2024-02-23T12:37:45;9.40;99.90
5429;DHT22;2737;52.386;9.980;2024-02-23T12:40:12;9.40;99.90
5429;DHT22;2737;52.386;9.980;2024-02-23T12:42:39;9.40;99.90
5429;DHT22;2737;52.386;9.980;2024-02-23T12:45:06;9.40;99.90
5429;DHT22;2737;52.386;9.980;2024-02-23T12:47:33;9.50;99.90
5429;DHT22;2737;52.386;9.980;2024-02-23T12:50:01;9.50;99.90
5429;DHT22;2737;52.386;9.980;2024-02-23T12:52:28;9.40;99.90
5429;DHT22;2737;52.386;9.980;2024-02-23T12:54:56;9.30;99.90
5429;DHT22;2737;52.386;9.980;2024-02-23T12:57:23;9.40;99.90
5429;DHT22;2737;52.386;9.980;2024-02-23T12:59:50;9.50;99.90
5429;DHT22;2737;52.386;9.980;2024-02-23T13:02:17;9.60;99.90
5429;DHT22;2737;52.386;9.980;2024-02-23T13:04:44;9.60;99.90
5429;DHT22;2737;52.386;9.980;2024-02-23T13:07:14;9.50;99.90
5429;DHT22;2737;52.386;9.980;2024-02-23T13:09:44;9.50;99.90
5429;DHT22;2737;52.386;9.980;2024-02-23T13:12:13;9.50;99.90
5429;DHT22;2737;52.386;9.980;2024-02-23T13:14:41;9.60;99.90
5429;DHT22;2737;52.386;9.980;2024-02-23T13:17:08;9.50;99.90
5429;DHT22;2737;52.386;9.980;2024-02-23T13:19:35;9.50;99.90
5429;DHT22;2737;52.386;9.980;2024-02-23T13:22:03;9.60;99.90
5429;DHT22;2737;52.386;9.980;2024-02-23T13:24:30;9.60;99.90
5429;DHT22;2737;52.386;9.980;2024-02-23T13:26:57;9.60;99.90
5429;DHT22;2737;52.386;9.980;2024-02-23T13:29:25;9.60;99.90
5429;DHT22;2737;52.386;9.980;2024-02-23T13:31:52;9.50;99.90
5429;DHT22;2737;52.386;9.980;2024-02-23T13:34:19;9.50;99.90
5429;DHT22;2737;52.386;9.980;2024-02-23T13:36:46;9.50;99.90
5429;DHT22;2737;52.386;9.980;2024-02-23T13:39:15;9.50;99.90
5429;DHT22;2737;52.386;9.980;2024-02-23T13:41:42;9.60;99.90
5429;DHT22;2737;52.386;9.980;2024-02-23T13:44:09;9.50;99.90
5429;DHT22;2737;52.386;9.980;2024-02-23T13:46:38;9.50;99.90
5429;DHT22;2737;52.386;9.980;2024-02-23T13:49:06;9.50;99.90
5429;DHT22;2737;52.386;9.980;2024-02-23T13:51:35;9.50;99.90
5429;DHT22;2737;52.386;9.980;2024-02-23T13:54:02;9.50;99.90
5429;DHT22;2737;52.386;9.980;2024-02-23T13:56:29;9.50;99.90
5429;DHT22;2737;52.386;9.980;2024-02-23T13:58:56;9.60;99.90
5429;DHT22;2737;52.386;9.980;2024-02-23T14:01:23;9.60;99.90
5429;DHT22;2737;52.386;9.980;2024-02-23T14:03:52;9.60;99.90
5429;DHT22;2737;52.386;9.980;2024-02-23T14:06:19;9.60;99.90
5429;DHT22;2737;52.386;9.980;2024-02-23T14:08:46;9.50;99.90
5429;DHT22;2737;52.386;9.980;2024-02-23T14:11:14;9.60;99.90
5429;DHT22;2737;52.386;9.980;2024-02-23T14:13:41;9.50;99.90
5429;DHT22;2737;52.386;9.980;2024-02-23T14:16:10;9.60;99.90
5429;DHT22;2737;52.386;9.980;2024-02-23T14:18:37;9.60;99.90
5429;DHT22;2737;52.386;9.980;2024-02-23T14:21:06;9.60;99.90
5429;DHT22;2737;52.386;9.980;2024-02-23T14:23:33;9.60;99.90
5429;DHT22;2737;52.386;9.980;2024-02-23T14:26:01;9.60;99.90
5429;DHT22;2737;52.386;9.980;2024-02-23T14:28:28;9.60;99.90
5429;DHT22;2737;52.386;9.980;2024-02-23T14:30:55;9.50;99.90
5429;DHT22;2737;52.386;9.980;2024-02-23T14:33:22;9.50;99.90
5429;DHT22;2737;52.386;9.980;2024-02-23T14:35:49;9.50;99.90
5429;DHT22;2737;52.386;9.980;2024-02-23T14:38:17;9.50;99.90
5429;DHT22;2737;52.386;9.980;2024-02-23T14:40:44;9.50;99.90
5429;DHT22;2737;52.386;9.980;2024-02-23T14:43:11;9.40;99.90
5429;DHT22;2737;52.386;9.980;2024-02-23T14:45:38;9.40;99.90
5429;DHT22;2737;52.386;9.980;2024-02-23T14:48:06;9.40;99.90
5429;DHT22;2737;52.386;9.980;2024-02-23T14:50:33;9.40;99.90
5429;DHT22;2737;52.386;9.980;2024-02-23T14:53:00;9.50;99.90
5429;DHT22;2737;52.386;9.980;2024-02-23T14:55:29;9.40;99.90
5429;DHT22;2737;52.386;9.980;2024-02-23T14:57:56;9.40;99.90
5429;DHT22;2737;52.386;9.980;2024-02-23T15:00:23;9.40;99.90
5429;DHT22;2737;52.386;9.980;2024-02-23T15:02:50;9.40;99.90
5429;DHT22;2737;52.386;9.980;2024-02-23T15:05:17;9.40;99.90
5429;DHT22;2737;52.386;9.980;2024-02-23T15:07:44;9.40;99.90
5429;DHT22;2737;52.386;9.980;2024-02-23T15:10:12;9.50;99.90
5429;DHT22;2737;52.386;9.980;2024-02-23T15:12:41;9.40;99.90
5429;DHT22;2737;52.386;9.980;2024-02-23T15:15:08;9.40;99.90
5429;DHT22;2737;52.386;9.980;2024-02-23T15:17:36;9.30;99.90
5429;DHT22;2737;52.386;9.980;2024-02-23T15:20:04;9.30;99.90
5429;DHT22;2737;52.386;9.980;2024-02-23T15:22:31;9.20;99.90
5429;DHT22;2737;52.386;9.980;2024-02-23T15:24:58;9.20;99.90
5429;DHT22;2737;52.386;9.980;2024-02-23T15:27:25;9.20;99.90
5429;DHT22;2737;52.386;9.980;2024-02-23T15:29:55;9.10;99.90
5429;DHT22;2737;52.386;9.980;2024-02-23T15:32:22;9.20;99.90
5429;DHT22;2737;52.386;9.980;2024-02-23T15:34:49;9.20;99.90
5429;DHT22;2737;52.386;9.980;2024-02-23T15:37:17;9.20;99.90
5429;DHT22;2737;52.386;9.980;2024-02-23T15:39:44;9.20;99.90
5429;DHT22;2737;52.386;9.980;2024-02-23T15:42:13;9.20;99.90
5429;DHT22;2737;52.386;9.980;2024-02-23T15:44:41;9.20;99.90
5429;DHT22;2737;52.386;9.980;2024-02-23T15:47:10;9.10;99.90
5429;DHT22;2737;52.386;9.980;2024-02-23T15:49:37;9.20;99.90
5429;DHT22;2737;52.386;9.980;2024-02-23T15:52:05;9.20;99.90
5429;DHT22;2737;52.386;9.980;2024-02-23T15:54:32;9.20;99.90
5429;DHT22;2737;52.386;9.980;2024-02-23T15:56:59;9.20;99.90
5429;DHT22;2737;52.386;9.980;2024-02-23T15:59:26;9.20;99.90
5429;DHT22;2737;52.386;9.980;2024-02-23T16:01:55;9.10;99.90
5429;DHT22;2737;52.386;9.980;2024-02-23T16:04:24;9.10;99.90
5429;DHT22;2737;52.386;9.980;2024-02-23T16:06:52;9.10;99.90
5429;DHT22;2737;52.386;9.980;2024-02-23T16:09:19;9.10;99.90
5429;DHT22;2737;52.386;9.980;2024-02-23T16:11:46;9.00;99.90
5429;DHT22;2737;52.386;9.980;2024-02-23T16:14:14;9.00;99.90
5429;DHT22;2737;52.386;9.980;2024-02-23T16:16:41;9.00;99.90
5429;DHT22;2737;52.386;9.980;2024-02-23T16:19:08;9.00;99.90
5429;DHT22;2737;52.386;9.980;2024-02-23T16:21:37;9.00;99.90